Japan Airlines Virtual Airport Information Service

Fukuoka Airport

ICAO: RJFF Country: Japan
Latitude: 33.5859 Longitude: 130.451
Latest Arrival : ANA421 (RJOO-RJFF) Latest Departure : ANA246 (RJFF-RJTT)


WX CaptureLIVE
Data provided by noaa.gov | Fetched at 14:16:23

METAR : RJFF 281400Z AUTO 30023G34KT 9999 FEW042 OVC060 05/M07 Q1018 NOSIG RMK A3006

TAF : RJFF 281105Z 2812/2918 29025G35KT 9000 -SHSN FEW010 SCT020 BKN025 TEMPO 2818/2900 3000 -SHSN BECMG 2906/2909 29006KT


Runway Data for RJFF
Data provided by openaviationdata.com

Runway ID Mag Var Hdg Length Elevation Surface ILS Freq ILS Id ILS Slope
16 -7 157° 9213 ft -23 ft Asphalt 111.7 IFO 3
34 -7 337° 9213 ft -23 ft Asphalt 108.9 IFF 3

Fukuoka Airport, Japan
Use only for reference purposes



Not for navigational purposes.